プーケット の空港の天気 - METARとTAF

プーケット国際空港 ( VTSP / HKT ) - タイ プーケット県
飛行場実況気象(Metar)
観測時間01/19 09:30 ICT (01/19 02:30 UTC)
風向・風速東 6m/s
視程10km以上
天気現象
少しの雲 雲底高度 610m
気温27℃
湿度66%
気圧1012hPa
METARVTSP 190230Z 08011KT 040V110 9999 FEW020 27/20 Q1012 NOSIG
過去の天気等 Google飛行場航空写真 Wunderground天気予報

過去48時間のMETAR

飛行場予報(TAF)
発表時間: 1/19 06:00 ICT (1/18 23:00 UTC)
予報対象時間: 19日7時 ICT ~ 20日13時 ICT
風向・風速東 5m/s
視程10km以上
少しの雲 雲底高度 610m
TAF VTSP 182300Z 1900/2006 08010KT 9999 FEW020